sensor_id;sensor_type;location;lat;lon;timestamp;P1;durP1;ratioP1;P2;durP2;ratioP2
52786;SDS011;38661;53.152;5.846;2023-04-24T00:01:47;11.73;;;7.45;;
52786;SDS011;38661;53.152;5.846;2023-04-24T00:04:13;9.10;;;8.10;;
52786;SDS011;38661;53.152;5.846;2023-04-24T00:06:41;8.57;;;7.15;;
52786;SDS011;38661;53.152;5.846;2023-04-24T00:09:08;8.55;;;7.75;;
52786;SDS011;38661;53.152;5.846;2023-04-24T00:11:37;9.02;;;6.97;;
52786;SDS011;38661;53.152;5.846;2023-04-24T00:14:03;10.60;;;7.95;;
52786;SDS011;38661;53.152;5.846;2023-04-24T00:16:29;7.63;;;6.90;;
52786;SDS011;38661;53.152;5.846;2023-04-24T00:18:54;9.52;;;7.63;;
52786;SDS011;38661;53.152;5.846;2023-04-24T00:21:20;10.38;;;7.70;;
52786;SDS011;38661;53.152;5.846;2023-04-24T00:23:46;9.85;;;8.13;;
52786;SDS011;38661;53.152;5.846;2023-04-24T00:26:13;8.82;;;7.93;;
52786;SDS011;38661;53.152;5.846;2023-04-24T00:28:38;9.90;;;7.95;;
52786;SDS011;38661;53.152;5.846;2023-04-24T00:31:04;9.77;;;8.18;;
52786;SDS011;38661;53.152;5.846;2023-04-24T00:33:30;11.27;;;7.97;;
52786;SDS011;38661;53.152;5.846;2023-04-24T00:35:55;8.82;;;8.02;;
52786;SDS011;38661;53.152;5.846;2023-04-24T00:38:21;7.90;;;7.20;;
52786;SDS011;38661;53.152;5.846;2023-04-24T00:40:47;9.60;;;8.70;;
52786;SDS011;38661;53.152;5.846;2023-04-24T00:43:15;10.48;;;8.55;;
52786;SDS011;38661;53.152;5.846;2023-04-24T00:45:41;10.85;;;9.32;;
52786;SDS011;38661;53.152;5.846;2023-04-24T00:48:07;10.80;;;8.80;;
52786;SDS011;38661;53.152;5.846;2023-04-24T00:50:35;10.20;;;8.50;;
52786;SDS011;38661;53.152;5.846;2023-04-24T00:53:01;10.65;;;9.00;;
52786;SDS011;38661;53.152;5.846;2023-04-24T00:55:27;9.60;;;8.60;;
52786;SDS011;38661;53.152;5.846;2023-04-24T00:57:53;9.20;;;8.25;;
52786;SDS011;38661;53.152;5.846;2023-04-24T01:00:18;9.95;;;8.88;;
52786;SDS011;38661;53.152;5.846;2023-04-24T01:02:44;10.13;;;8.85;;
52786;SDS011;38661;53.152;5.846;2023-04-24T01:05:14;8.90;;;8.05;;
52786;SDS011;38661;53.152;5.846;2023-04-24T01:07:41;10.13;;;8.63;;
52786;SDS011;38661;53.152;5.846;2023-04-24T01:10:10;10.40;;;9.40;;
52786;SDS011;38661;53.152;5.846;2023-04-24T01:12:37;9.02;;;8.18;;
52786;SDS011;38661;53.152;5.846;2023-04-24T01:15:04;9.15;;;8.25;;
52786;SDS011;38661;53.152;5.846;2023-04-24T01:17:31;10.02;;;9.02;;
52786;SDS011;38661;53.152;5.846;2023-04-24T01:19:57;10.07;;;8.10;;
52786;SDS011;38661;53.152;5.846;2023-04-24T01:22:25;9.07;;;7.53;;
52786;SDS011;38661;53.152;5.846;2023-04-24T01:24:51;7.85;;;7.05;;
52786;SDS011;38661;53.152;5.846;2023-04-24T01:27:18;7.80;;;7.10;;
52786;SDS011;38661;53.152;5.846;2023-04-24T01:29:45;7.88;;;7.07;;
52786;SDS011;38661;53.152;5.846;2023-04-24T01:32:10;8.10;;;7.30;;
52786;SDS011;38661;53.152;5.846;2023-04-24T01:34:37;8.23;;;6.60;;
52786;SDS011;38661;53.152;5.846;2023-04-24T01:37:03;8.00;;;6.63;;
52786;SDS011;38661;53.152;5.846;2023-04-24T01:39:30;7.70;;;6.53;;
52786;SDS011;38661;53.152;5.846;2023-04-24T01:41:56;7.50;;;6.80;;
52786;SDS011;38661;53.152;5.846;2023-04-24T01:44:22;8.40;;;6.97;;
52786;SDS011;38661;53.152;5.846;2023-04-24T01:46:48;7.55;;;6.85;;
52786;SDS011;38661;53.152;5.846;2023-04-24T01:49:14;8.82;;;7.90;;
52786;SDS011;38661;53.152;5.846;2023-04-24T01:51:40;9.18;;;8.30;;
52786;SDS011;38661;53.152;5.846;2023-04-24T01:54:06;9.77;;;8.77;;
52786;SDS011;38661;53.152;5.846;2023-04-24T01:56:33;11.90;;;9.55;;
52786;SDS011;38661;53.152;5.846;2023-04-24T01:59:02;12.23;;;10.05;;
52786;SDS011;38661;53.152;5.846;2023-04-24T02:01:33;10.82;;;9.77;;
52786;SDS011;38661;53.152;5.846;2023-04-24T02:04:00;10.00;;;8.90;;
52786;SDS011;38661;53.152;5.846;2023-04-24T02:06:26;12.57;;;10.82;;
52786;SDS011;38661;53.152;5.846;2023-04-24T02:08:52;13.73;;;10.70;;
52786;SDS011;38661;53.152;5.846;2023-04-24T02:11:18;10.98;;;9.80;;
52786;SDS011;38661;53.152;5.846;2023-04-24T02:13:44;13.10;;;11.40;;
52786;SDS011;38661;53.152;5.846;2023-04-24T02:16:10;13.18;;;11.77;;
52786;SDS011;38661;53.152;5.846;2023-04-24T02:18:35;12.32;;;10.75;;
52786;SDS011;38661;53.152;5.846;2023-04-24T02:21:01;13.80;;;12.18;;
52786;SDS011;38661;53.152;5.846;2023-04-24T02:23:27;12.30;;;11.02;;
52786;SDS011;38661;53.152;5.846;2023-04-24T02:25:53;13.38;;;11.18;;
52786;SDS011;38661;53.152;5.846;2023-04-24T02:28:19;14.45;;;12.18;;
52786;SDS011;38661;53.152;5.846;2023-04-24T02:30:44;11.98;;;10.30;;
52786;SDS011;38661;53.152;5.846;2023-04-24T02:33:11;16.23;;;11.77;;
52786;SDS011;38661;53.152;5.846;2023-04-24T02:35:37;14.38;;;11.15;;
52786;SDS011;38661;53.152;5.846;2023-04-24T02:38:03;10.75;;;8.75;;
52786;SDS011;38661;53.152;5.846;2023-04-24T02:40:28;8.00;;;6.90;;
52786;SDS011;38661;53.152;5.846;2023-04-24T02:42:54;8.65;;;7.20;;
52786;SDS011;38661;53.152;5.846;2023-04-24T02:45:20;6.57;;;5.35;;
52786;SDS011;38661;53.152;5.846;2023-04-24T02:47:46;5.97;;;5.00;;
52786;SDS011;38661;53.152;5.846;2023-04-24T02:50:12;4.63;;;3.67;;
52786;SDS011;38661;53.152;5.846;2023-04-24T02:52:37;4.22;;;2.20;;
52786;SDS011;38661;53.152;5.846;2023-04-24T02:55:03;2.63;;;1.75;;
52786;SDS011;38661;53.152;5.846;2023-04-24T02:57:29;3.35;;;2.15;;
52786;SDS011;38661;53.152;5.846;2023-04-24T02:59:55;3.25;;;2.53;;
52786;SDS011;38661;53.152;5.846;2023-04-24T03:02:20;2.72;;;2.20;;
52786;SDS011;38661;53.152;5.846;2023-04-24T03:04:46;3.38;;;2.80;;
52786;SDS011;38661;53.152;5.846;2023-04-24T03:07:13;3.28;;;2.90;;
52786;SDS011;38661;53.152;5.846;2023-04-24T03:09:39;2.70;;;2.50;;
52786;SDS011;38661;53.152;5.846;2023-04-24T03:12:05;3.88;;;3.15;;
52786;SDS011;38661;53.152;5.846;2023-04-24T03:14:31;4.60;;;4.20;;
52786;SDS011;38661;53.152;5.846;2023-04-24T03:16:57;2.88;;;2.38;;
52786;SDS011;38661;53.152;5.846;2023-04-24T03:19:23;2.97;;;2.33;;
52786;SDS011;38661;53.152;5.846;2023-04-24T03:21:49;2.13;;;1.92;;
52786;SDS011;38661;53.152;5.846;2023-04-24T03:24:14;2.38;;;1.90;;
52786;SDS011;38661;53.152;5.846;2023-04-24T03:26:40;2.72;;;1.73;;
52786;SDS011;38661;53.152;5.846;2023-04-24T03:29:06;3.03;;;1.52;;
52786;SDS011;38661;53.152;5.846;2023-04-24T03:31:32;2.88;;;2.00;;
52786;SDS011;38661;53.152;5.846;2023-04-24T03:33:58;2.72;;;1.77;;
52786;SDS011;38661;53.152;5.846;2023-04-24T03:36:23;5.35;;;2.13;;
52786;SDS011;38661;53.152;5.846;2023-04-24T03:38:51;2.92;;;2.22;;
52786;SDS011;38661;53.152;5.846;2023-04-24T03:41:16;2.90;;;2.60;;
52786;SDS011;38661;53.152;5.846;2023-04-24T03:43:42;5.43;;;3.28;;
52786;SDS011;38661;53.152;5.846;2023-04-24T03:46:08;3.90;;;3.50;;
52786;SDS011;38661;53.152;5.846;2023-04-24T03:48:34;4.85;;;3.30;;
52786;SDS011;38661;53.152;5.846;2023-04-24T03:51:00;4.15;;;3.63;;
52786;SDS011;38661;53.152;5.846;2023-04-24T03:53:26;4.13;;;2.90;;
52786;SDS011;38661;53.152;5.846;2023-04-24T03:55:52;8.05;;;3.88;;
52786;SDS011;38661;53.152;5.846;2023-04-24T03:58:18;5.00;;;4.10;;
52786;SDS011;38661;53.152;5.846;2023-04-24T04:00:44;5.47;;;4.47;;
52786;SDS011;38661;53.152;5.846;2023-04-24T04:03:11;5.00;;;4.03;;
52786;SDS011;38661;53.152;5.846;2023-04-24T04:05:38;6.13;;;4.00;;
52786;SDS011;38661;53.152;5.846;2023-04-24T04:08:04;6.90;;;4.80;;
52786;SDS011;38661;53.152;5.846;2023-04-24T04:10:30;5.60;;;4.15;;
52786;SDS011;38661;53.152;5.846;2023-04-24T04:12:56;5.72;;;4.38;;
52786;SDS011;38661;53.152;5.846;2023-04-24T04:15:21;6.32;;;4.40;;
52786;SDS011;38661;53.152;5.846;2023-04-24T04:17:47;5.93;;;4.43;;
52786;SDS011;38661;53.152;5.846;2023-04-24T04:20:13;6.57;;;4.95;;
52786;SDS011;38661;53.152;5.846;2023-04-24T04:22:39;5.30;;;4.20;;
52786;SDS011;38661;53.152;5.846;2023-04-24T04:25:05;6.75;;;5.07;;
52786;SDS011;38661;53.152;5.846;2023-04-24T04:27:31;5.65;;;4.20;;
52786;SDS011;38661;53.152;5.846;2023-04-24T04:30:01;8.45;;;5.53;;
52786;SDS011;38661;53.152;5.846;2023-04-24T04:32:32;7.28;;;5.25;;
52786;SDS011;38661;53.152;5.846;2023-04-24T04:34:59;6.70;;;5.13;;
52786;SDS011;38661;53.152;5.846;2023-04-24T04:37:32;6.70;;;5.53;;
52786;SDS011;38661;53.152;5.846;2023-04-24T04:39:58;4.57;;;3.58;;
52786;SDS011;38661;53.152;5.846;2023-04-24T04:42:25;5.25;;;3.53;;
52786;SDS011;38661;53.152;5.846;2023-04-24T04:44:52;3.20;;;2.22;;
52786;SDS011;38661;53.152;5.846;2023-04-24T04:47:18;3.97;;;2.28;;
52786;SDS011;38661;53.152;5.846;2023-04-24T04:49:47;2.70;;;1.92;;
52786;SDS011;38661;53.152;5.846;2023-04-24T04:52:13;4.15;;;1.50;;
52786;SDS011;38661;53.152;5.846;2023-04-24T04:54:39;5.38;;;2.17;;
52786;SDS011;38661;53.152;5.846;2023-04-24T04:57:05;4.85;;;2.72;;
52786;SDS011;38661;53.152;5.846;2023-04-24T04:59:31;6.55;;;4.18;;
52786;SDS011;38661;53.152;5.846;2023-04-24T05:01:56;7.57;;;4.65;;
52786;SDS011;38661;53.152;5.846;2023-04-24T05:04:22;8.90;;;5.95;;
52786;SDS011;38661;53.152;5.846;2023-04-24T05:06:48;8.80;;;5.78;;
52786;SDS011;38661;53.152;5.846;2023-04-24T05:09:16;10.75;;;6.30;;
52786;SDS011;38661;53.152;5.846;2023-04-24T05:11:41;13.45;;;7.93;;
52786;SDS011;38661;53.152;5.846;2023-04-24T05:14:07;10.32;;;8.02;;
52786;SDS011;38661;53.152;5.846;2023-04-24T05:16:33;15.05;;;8.30;;
52786;SDS011;38661;53.152;5.846;2023-04-24T05:18:58;8.57;;;5.97;;
52786;SDS011;38661;53.152;5.846;2023-04-24T05:21:24;10.02;;;5.53;;
52786;SDS011;38661;53.152;5.846;2023-04-24T05:23:50;7.82;;;5.70;;
52786;SDS011;38661;53.152;5.846;2023-04-24T05:26:16;8.00;;;4.88;;
52786;SDS011;38661;53.152;5.846;2023-04-24T05:28:42;6.55;;;4.07;;
52786;SDS011;38661;53.152;5.846;2023-04-24T05:31:08;5.38;;;2.60;;
52786;SDS011;38661;53.152;5.846;2023-04-24T05:33:34;4.13;;;3.00;;
52786;SDS011;38661;53.152;5.846;2023-04-24T05:36:00;5.18;;;2.83;;
52786;SDS011;38661;53.152;5.846;2023-04-24T05:38:25;6.03;;;2.45;;
52786;SDS011;38661;53.152;5.846;2023-04-24T05:40:51;4.57;;;2.95;;
52786;SDS011;38661;53.152;5.846;2023-04-24T05:43:17;5.85;;;3.03;;
52786;SDS011;38661;53.152;5.846;2023-04-24T05:45:42;5.68;;;3.22;;
52786;SDS011;38661;53.152;5.846;2023-04-24T05:48:08;4.65;;;3.08;;
52786;SDS011;38661;53.152;5.846;2023-04-24T05:50:34;4.93;;;3.38;;
52786;SDS011;38661;53.152;5.846;2023-04-24T05:52:59;4.65;;;2.45;;
52786;SDS011;38661;53.152;5.846;2023-04-24T05:55:27;6.97;;;3.60;;
52786;SDS011;38661;53.152;5.846;2023-04-24T05:57:52;4.75;;;2.78;;
52786;SDS011;38661;53.152;5.846;2023-04-24T06:00:18;5.72;;;2.53;;
52786;SDS011;38661;53.152;5.846;2023-04-24T06:02:45;6.18;;;3.33;;
52786;SDS011;38661;53.152;5.846;2023-04-24T06:05:12;5.90;;;3.55;;
52786;SDS011;38661;53.152;5.846;2023-04-24T06:07:37;4.32;;;2.53;;
52786;SDS011;38661;53.152;5.846;2023-04-24T06:10:03;4.57;;;3.45;;
52786;SDS011;38661;53.152;5.846;2023-04-24T06:12:29;7.85;;;3.42;;
52786;SDS011;38661;53.152;5.846;2023-04-24T06:14:56;11.65;;;7.07;;
52786;SDS011;38661;53.152;5.846;2023-04-24T06:17:21;4.85;;;3.42;;
52786;SDS011;38661;53.152;5.846;2023-04-24T06:19:47;6.18;;;2.40;;
52786;SDS011;38661;53.152;5.846;2023-04-24T06:22:13;4.15;;;2.47;;
52786;SDS011;38661;53.152;5.846;2023-04-24T06:24:42;4.82;;;2.17;;
52786;SDS011;38661;53.152;5.846;2023-04-24T06:27:07;3.13;;;1.95;;
52786;SDS011;38661;53.152;5.846;2023-04-24T06:29:33;4.60;;;2.40;;
52786;SDS011;38661;53.152;5.846;2023-04-24T06:31:59;5.60;;;2.40;;
52786;SDS011;38661;53.152;5.846;2023-04-24T06:34:25;6.15;;;2.85;;
52786;SDS011;38661;53.152;5.846;2023-04-24T06:36:50;6.32;;;3.25;;
52786;SDS011;38661;53.152;5.846;2023-04-24T06:39:16;9.18;;;4.88;;
52786;SDS011;38661;53.152;5.846;2023-04-24T06:41:42;9.75;;;5.63;;
52786;SDS011;38661;53.152;5.846;2023-04-24T06:44:08;10.68;;;7.93;;
52786;SDS011;38661;53.152;5.846;2023-04-24T06:46:33;13.18;;;7.88;;
52786;SDS011;38661;53.152;5.846;2023-04-24T06:48:59;14.63;;;10.23;;
52786;SDS011;38661;53.152;5.846;2023-04-24T06:51:26;21.15;;;10.75;;
52786;SDS011;38661;53.152;5.846;2023-04-24T06:53:55;18.83;;;9.88;;
52786;SDS011;38661;53.152;5.846;2023-04-24T06:56:21;20.55;;;11.13;;
52786;SDS011;38661;53.152;5.846;2023-04-24T06:58:47;14.95;;;9.23;;
52786;SDS011;38661;53.152;5.846;2023-04-24T07:01:13;17.65;;;11.93;;
52786;SDS011;38661;53.152;5.846;2023-04-24T07:03:39;14.65;;;9.88;;
52786;SDS011;38661;53.152;5.846;2023-04-24T07:06:05;15.32;;;9.73;;
52786;SDS011;38661;53.152;5.846;2023-04-24T07:08:31;13.57;;;9.02;;
52786;SDS011;38661;53.152;5.846;2023-04-24T07:10:58;13.20;;;8.13;;
52786;SDS011;38661;53.152;5.846;2023-04-24T07:13:24;15.63;;;10.27;;
52786;SDS011;38661;53.152;5.846;2023-04-24T07:15:50;16.42;;;9.73;;
52786;SDS011;38661;53.152;5.846;2023-04-24T07:18:17;18.27;;;10.18;;
52786;SDS011;38661;53.152;5.846;2023-04-24T07:20:43;20.38;;;11.20;;
52786;SDS011;38661;53.152;5.846;2023-04-24T07:23:10;17.90;;;11.43;;
52786;SDS011;38661;53.152;5.846;2023-04-24T07:25:35;19.80;;;11.98;;
52786;SDS011;38661;53.152;5.846;2023-04-24T07:28:01;19.67;;;13.02;;
52786;SDS011;38661;53.152;5.846;2023-04-24T07:30:27;25.33;;;14.38;;
52786;SDS011;38661;53.152;5.846;2023-04-24T07:32:57;19.45;;;14.18;;
52786;SDS011;38661;53.152;5.846;2023-04-24T07:35:23;25.58;;;11.68;;
52786;SDS011;38661;53.152;5.846;2023-04-24T07:37:51;24.85;;;13.90;;
52786;SDS011;38661;53.152;5.846;2023-04-24T07:40:18;18.20;;;12.73;;
52786;SDS011;38661;53.152;5.846;2023-04-24T07:42:44;19.98;;;11.63;;
52786;SDS011;38661;53.152;5.846;2023-04-24T07:45:10;12.93;;;10.00;;
52786;SDS011;38661;53.152;5.846;2023-04-24T07:47:36;14.80;;;9.13;;
52786;SDS011;38661;53.152;5.846;2023-04-24T07:50:03;13.95;;;8.60;;
52786;SDS011;38661;53.152;5.846;2023-04-24T07:52:29;14.25;;;8.43;;
52786;SDS011;38661;53.152;5.846;2023-04-24T07:54:55;14.43;;;6.68;;
52786;SDS011;38661;53.152;5.846;2023-04-24T07:57:25;13.77;;;7.78;;
52786;SDS011;38661;53.152;5.846;2023-04-24T07:59:51;12.63;;;8.13;;
52786;SDS011;38661;53.152;5.846;2023-04-24T08:02:16;13.60;;;8.05;;
52786;SDS011;38661;53.152;5.846;2023-04-24T08:04:45;11.43;;;6.65;;
52786;SDS011;38661;53.152;5.846;2023-04-24T08:07:14;13.13;;;7.15;;
52786;SDS011;38661;53.152;5.846;2023-04-24T08:09:39;10.40;;;6.20;;
52786;SDS011;38661;53.152;5.846;2023-04-24T08:12:05;13.05;;;6.47;;
52786;SDS011;38661;53.152;5.846;2023-04-24T08:14:31;10.98;;;6.50;;
52786;SDS011;38661;53.152;5.846;2023-04-24T08:16:59;8.95;;;5.82;;
52786;SDS011;38661;53.152;5.846;2023-04-24T08:19:26;9.57;;;5.53;;
52786;SDS011;38661;53.152;5.846;2023-04-24T08:21:51;8.35;;;5.78;;
52786;SDS011;38661;53.152;5.846;2023-04-24T08:24:17;10.00;;;5.70;;
52786;SDS011;38661;53.152;5.846;2023-04-24T08:26:43;11.90;;;7.05;;
52786;SDS011;38661;53.152;5.846;2023-04-24T08:29:09;9.80;;;6.50;;
52786;SDS011;38661;53.152;5.846;2023-04-24T08:31:34;12.02;;;6.45;;
52786;SDS011;38661;53.152;5.846;2023-04-24T08:34:00;10.13;;;6.05;;
52786;SDS011;38661;53.152;5.846;2023-04-24T08:36:29;12.98;;;6.22;;
52786;SDS011;38661;53.152;5.846;2023-04-24T08:38:55;9.65;;;5.35;;
52786;SDS011;38661;53.152;5.846;2023-04-24T08:41:21;12.43;;;6.88;;
52786;SDS011;38661;53.152;5.846;2023-04-24T08:43:49;11.60;;;4.45;;
52786;SDS011;38661;53.152;5.846;2023-04-24T08:46:16;11.75;;;6.63;;
52786;SDS011;38661;53.152;5.846;2023-04-24T08:48:43;8.95;;;4.63;;
52786;SDS011;38661;53.152;5.846;2023-04-24T08:51:10;10.07;;;4.65;;
52786;SDS011;38661;53.152;5.846;2023-04-24T08:53:36;9.55;;;3.47;;
52786;SDS011;38661;53.152;5.846;2023-04-24T08:56:02;9.18;;;4.97;;
52786;SDS011;38661;53.152;5.846;2023-04-24T08:58:29;10.13;;;4.00;;
52786;SDS011;38661;53.152;5.846;2023-04-24T09:00:57;6.88;;;3.65;;
52786;SDS011;38661;53.152;5.846;2023-04-24T09:03:23;10.55;;;3.85;;
52786;SDS011;38661;53.152;5.846;2023-04-24T09:05:50;9.13;;;4.03;;
52786;SDS011;38661;53.152;5.846;2023-04-24T09:08:19;9.82;;;3.97;;
52786;SDS011;38661;53.152;5.846;2023-04-24T09:10:45;8.82;;;4.10;;
52786;SDS011;38661;53.152;5.846;2023-04-24T09:13:11;9.80;;;4.18;;
52786;SDS011;38661;53.152;5.846;2023-04-24T09:15:38;9.30;;;3.13;;
52786;SDS011;38661;53.152;5.846;2023-04-24T09:18:05;13.43;;;3.63;;
52786;SDS011;38661;53.152;5.846;2023-04-24T09:20:31;12.05;;;4.07;;
52786;SDS011;38661;53.152;5.846;2023-04-24T09:22:57;10.32;;;4.45;;
52786;SDS011;38661;53.152;5.846;2023-04-24T09:25:33;12.68;;;3.42;;
52786;SDS011;38661;53.152;5.846;2023-04-24T09:28:04;6.35;;;2.33;;
52786;SDS011;38661;53.152;5.846;2023-04-24T09:30:31;10.52;;;3.40;;
52786;SDS011;38661;53.152;5.846;2023-04-24T09:33:13;7.53;;;2.78;;
52786;SDS011;38661;53.152;5.846;2023-04-24T09:35:40;4.13;;;2.05;;
52786;SDS011;38661;53.152;5.846;2023-04-24T09:38:16;6.97;;;3.00;;
52786;SDS011;38661;53.152;5.846;2023-04-24T09:40:42;8.13;;;2.95;;
52786;SDS011;38661;53.152;5.846;2023-04-24T09:43:10;8.07;;;3.50;;
52786;SDS011;38661;53.152;5.846;2023-04-24T09:45:36;6.30;;;2.33;;
52786;SDS011;38661;53.152;5.846;2023-04-24T09:48:04;5.45;;;2.53;;
52786;SDS011;38661;53.152;5.846;2023-04-24T09:50:31;8.98;;;3.22;;
52786;SDS011;38661;53.152;5.846;2023-04-24T09:52:58;4.25;;;1.80;;
52786;SDS011;38661;53.152;5.846;2023-04-24T09:55:26;8.93;;;2.13;;
52786;SDS011;38661;53.152;5.846;2023-04-24T09:57:59;7.40;;;2.72;;
52786;SDS011;38661;53.152;5.846;2023-04-24T10:00:30;8.00;;;2.00;;
52786;SDS011;38661;53.152;5.846;2023-04-24T10:03:03;4.78;;;1.80;;
52786;SDS011;38661;53.152;5.846;2023-04-24T10:05:31;10.75;;;2.58;;
52786;SDS011;38661;53.152;5.846;2023-04-24T10:08:08;8.45;;;2.35;;
52786;SDS011;38661;53.152;5.846;2023-04-24T10:10:37;13.52;;;4.28;;
52786;SDS011;38661;53.152;5.846;2023-04-24T10:13:05;12.68;;;3.22;;
52786;SDS011;38661;53.152;5.846;2023-04-24T10:15:37;4.70;;;1.92;;
52786;SDS011;38661;53.152;5.846;2023-04-24T10:18:05;8.45;;;2.88;;
52786;SDS011;38661;53.152;5.846;2023-04-24T10:20:32;5.13;;;1.92;;
52786;SDS011;38661;53.152;5.846;2023-04-24T10:22:59;6.95;;;1.65;;
52786;SDS011;38661;53.152;5.846;2023-04-24T10:25:26;6.00;;;1.98;;
52786;SDS011;38661;53.152;5.846;2023-04-24T10:27:53;9.10;;;1.95;;
52786;SDS011;38661;53.152;5.846;2023-04-24T10:30:24;6.47;;;2.13;;
52786;SDS011;38661;53.152;5.846;2023-04-24T10:32:54;3.92;;;1.42;;
52786;SDS011;38661;53.152;5.846;2023-04-24T10:35:21;8.13;;;2.05;;
52786;SDS011;38661;53.152;5.846;2023-04-24T10:37:50;8.60;;;1.95;;
52786;SDS011;38661;53.152;5.846;2023-04-24T10:40:19;6.85;;;1.65;;
52786;SDS011;38661;53.152;5.846;2023-04-24T10:42:52;6.20;;;2.63;;
52786;SDS011;38661;53.152;5.846;2023-04-24T10:45:19;5.45;;;1.45;;
52786;SDS011;38661;53.152;5.846;2023-04-24T10:47:53;5.18;;;2.10;;
52786;SDS011;38661;53.152;5.846;2023-04-24T10:50:27;4.15;;;1.05;;
52786;SDS011;38661;53.152;5.846;2023-04-24T10:53:04;8.55;;;2.33;;
52786;SDS011;38661;53.152;5.846;2023-04-24T10:55:42;10.73;;;1.88;;
52786;SDS011;38661;53.152;5.846;2023-04-24T10:58:40;5.95;;;1.48;;
52786;SDS011;38661;53.152;5.846;2023-04-24T11:01:11;8.77;;;1.73;;
52786;SDS011;38661;53.152;5.846;2023-04-24T11:03:57;4.28;;;1.85;;
52786;SDS011;38661;53.152;5.846;2023-04-24T11:06:36;10.57;;;2.97;;
52786;SDS011;38661;53.152;5.846;2023-04-24T11:09:06;6.75;;;2.25;;
52786;SDS011;38661;53.152;5.846;2023-04-24T11:11:35;5.90;;;2.55;;
52786;SDS011;38661;53.152;5.846;2023-04-24T11:14:03;6.68;;;4.03;;
52786;SDS011;38661;53.152;5.846;2023-04-24T11:24:24;5.22;;;1.90;;
52786;SDS011;38661;53.152;5.846;2023-04-24T11:29:44;7.47;;;1.95;;
52786;SDS011;38661;53.152;5.846;2023-04-24T11:34:56;3.45;;;1.10;;
52786;SDS011;38661;53.152;5.846;2023-04-24T11:37:24;2.78;;;1.08;;
52786;SDS011;38661;53.152;5.846;2023-04-24T11:39:56;5.45;;;1.63;;
52786;SDS011;38661;53.152;5.846;2023-04-24T11:42:23;9.57;;;2.35;;
52786;SDS011;38661;53.152;5.846;2023-04-24T11:44:51;4.63;;;1.35;;
52786;SDS011;38661;53.152;5.846;2023-04-24T11:47:18;4.05;;;1.08;;
52786;SDS011;38661;53.152;5.846;2023-04-24T11:49:43;5.32;;;1.38;;
52786;SDS011;38661;53.152;5.846;2023-04-24T11:52:09;5.72;;;1.65;;
52786;SDS011;38661;53.152;5.846;2023-04-24T11:54:35;4.07;;;1.27;;
52786;SDS011;38661;53.152;5.846;2023-04-24T11:57:05;4.95;;;1.73;;
52786;SDS011;38661;53.152;5.846;2023-04-24T11:59:35;5.30;;;1.23;;
52786;SDS011;38661;53.152;5.846;2023-04-24T12:02:02;6.88;;;1.23;;
52786;SDS011;38661;53.152;5.846;2023-04-24T12:04:37;5.95;;;1.83;;
52786;SDS011;38661;53.152;5.846;2023-04-24T12:07:06;5.68;;;1.85;;
52786;SDS011;38661;53.152;5.846;2023-04-24T12:10:06;6.47;;;1.02;;
52786;SDS011;38661;53.152;5.846;2023-04-24T12:12:26;5.22;;;1.38;;
52786;SDS011;38661;53.152;5.846;2023-04-24T12:14:53;4.07;;;1.23;;
52786;SDS011;38661;53.152;5.846;2023-04-24T12:17:26;5.75;;;1.25;;
52786;SDS011;38661;53.152;5.846;2023-04-24T12:19:57;10.32;;;1.25;;
52786;SDS011;38661;53.152;5.846;2023-04-24T12:22:42;2.67;;;0.70;;
52786;SDS011;38661;53.152;5.846;2023-04-24T12:25:09;8.07;;;2.65;;
52786;SDS011;38661;53.152;5.846;2023-04-24T12:27:35;3.28;;;0.52;;
52786;SDS011;38661;53.152;5.846;2023-04-24T12:30:02;5.53;;;0.85;;
52786;SDS011;38661;53.152;5.846;2023-04-24T12:32:30;5.63;;;0.90;;
52786;SDS011;38661;53.152;5.846;2023-04-24T12:34:56;5.18;;;0.82;;
52786;SDS011;38661;53.152;5.846;2023-04-24T12:37:23;4.15;;;0.85;;
52786;SDS011;38661;53.152;5.846;2023-04-24T12:40:06;3.90;;;1.00;;
52786;SDS011;38661;53.152;5.846;2023-04-24T12:42:33;5.78;;;1.02;;
52786;SDS011;38661;53.152;5.846;2023-04-24T12:45:04;2.35;;;0.80;;
52786;SDS011;38661;53.152;5.846;2023-04-24T12:47:33;3.15;;;0.90;;
52786;SDS011;38661;53.152;5.846;2023-04-24T12:50:01;3.15;;;0.60;;
52786;SDS011;38661;53.152;5.846;2023-04-24T12:52:27;4.28;;;0.93;;
52786;SDS011;38661;53.152;5.846;2023-04-24T12:54:58;3.78;;;1.30;;
52786;SDS011;38661;53.152;5.846;2023-04-24T12:57:26;2.03;;;0.73;;
52786;SDS011;38661;53.152;5.846;2023-04-24T12:59:57;4.75;;;1.33;;
52786;SDS011;38661;53.152;5.846;2023-04-24T13:02:24;5.38;;;1.67;;
52786;SDS011;38661;53.152;5.846;2023-04-24T13:04:52;3.72;;;1.10;;
52786;SDS011;38661;53.152;5.846;2023-04-24T13:07:18;3.20;;;1.17;;
52786;SDS011;38661;53.152;5.846;2023-04-24T13:09:44;7.10;;;2.35;;
52786;SDS011;38661;53.152;5.846;2023-04-24T13:12:10;12.35;;;2.58;;
52786;SDS011;38661;53.152;5.846;2023-04-24T13:14:37;10.90;;;2.42;;
52786;SDS011;38661;53.152;5.846;2023-04-24T13:17:03;10.45;;;3.35;;
52786;SDS011;38661;53.152;5.846;2023-04-24T13:19:29;7.88;;;2.45;;
52786;SDS011;38661;53.152;5.846;2023-04-24T13:22:04;8.23;;;2.13;;
52786;SDS011;38661;53.152;5.846;2023-04-24T13:24:30;9.85;;;2.40;;
52786;SDS011;38661;53.152;5.846;2023-04-24T13:26:57;7.65;;;2.33;;
52786;SDS011;38661;53.152;5.846;2023-04-24T13:29:23;7.65;;;1.95;;
52786;SDS011;38661;53.152;5.846;2023-04-24T13:31:52;10.73;;;2.50;;
52786;SDS011;38661;53.152;5.846;2023-04-24T13:34:22;9.95;;;3.25;;
52786;SDS011;38661;53.152;5.846;2023-04-24T13:36:49;10.32;;;3.20;;
52786;SDS011;38661;53.152;5.846;2023-04-24T13:39:16;9.93;;;3.22;;
52786;SDS011;38661;53.152;5.846;2023-04-24T13:41:42;12.13;;;3.10;;
52786;SDS011;38661;53.152;5.846;2023-04-24T13:44:08;8.30;;;2.75;;
52786;SDS011;38661;53.152;5.846;2023-04-24T13:46:34;6.30;;;2.55;;
52786;SDS011;38661;53.152;5.846;2023-04-24T13:49:01;9.98;;;2.00;;
52786;SDS011;38661;53.152;5.846;2023-04-24T13:51:28;7.30;;;2.17;;
52786;SDS011;38661;53.152;5.846;2023-04-24T13:53:54;5.90;;;2.45;;
52786;SDS011;38661;53.152;5.846;2023-04-24T13:56:20;7.30;;;2.50;;
52786;SDS011;38661;53.152;5.846;2023-04-24T13:58:47;10.23;;;3.00;;
52786;SDS011;38661;53.152;5.846;2023-04-24T14:01:13;11.45;;;3.70;;
52786;SDS011;38661;53.152;5.846;2023-04-24T14:03:42;9.93;;;3.50;;
52786;SDS011;38661;53.152;5.846;2023-04-24T14:06:08;6.32;;;2.22;;
52786;SDS011;38661;53.152;5.846;2023-04-24T14:08:34;9.40;;;2.28;;
52786;SDS011;38661;53.152;5.846;2023-04-24T14:11:00;18.98;;;3.53;;
52786;SDS011;38661;53.152;5.846;2023-04-24T14:13:25;8.90;;;2.10;;
52786;SDS011;38661;53.152;5.846;2023-04-24T14:15:52;9.40;;;2.40;;
52786;SDS011;38661;53.152;5.846;2023-04-24T14:18:18;12.48;;;3.90;;
52786;SDS011;38661;53.152;5.846;2023-04-24T14:20:44;9.63;;;2.60;;
52786;SDS011;38661;53.152;5.846;2023-04-24T14:23:10;8.07;;;3.40;;
52786;SDS011;38661;53.152;5.846;2023-04-24T14:25:36;8.45;;;2.83;;
52786;SDS011;38661;53.152;5.846;2023-04-24T14:28:01;16.33;;;4.32;;
52786;SDS011;38661;53.152;5.846;2023-04-24T14:30:27;8.10;;;3.00;;
52786;SDS011;38661;53.152;5.846;2023-04-24T14:32:53;9.50;;;2.83;;
52786;SDS011;38661;53.152;5.846;2023-04-24T14:35:18;11.02;;;3.42;;
52786;SDS011;38661;53.152;5.846;2023-04-24T14:37:44;9.52;;;2.58;;
52786;SDS011;38661;53.152;5.846;2023-04-24T14:40:10;14.32;;;3.30;;
52786;SDS011;38661;53.152;5.846;2023-04-24T14:42:38;13.85;;;3.92;;
52786;SDS011;38661;53.152;5.846;2023-04-24T14:45:04;14.02;;;3.90;;
52786;SDS011;38661;53.152;5.846;2023-04-24T14:47:30;9.10;;;2.30;;
52786;SDS011;38661;53.152;5.846;2023-04-24T14:49:55;11.65;;;4.00;;
52786;SDS011;38661;53.152;5.846;2023-04-24T14:52:21;9.77;;;3.22;;
52786;SDS011;38661;53.152;5.846;2023-04-24T14:54:47;10.88;;;3.25;;
52786;SDS011;38661;53.152;5.846;2023-04-24T14:57:12;11.95;;;3.58;;